createdAt,value
2022-11-16T00:02:21.095Z,98034.44
2022-11-16T00:04:47.624Z,98021.84
2022-11-16T00:07:14.078Z,98018.53
2022-11-16T00:09:40.614Z,98018.97
2022-11-16T00:12:08.175Z,98012.03
2022-11-16T00:14:36.050Z,98015.94
2022-11-16T00:17:03.584Z,98017.41
2022-11-16T00:19:30.364Z,98018.41
2022-11-16T00:21:57.027Z,98015.91
2022-11-16T00:24:23.869Z,98017.81
2022-11-16T00:26:51.383Z,98018.91
2022-11-16T00:29:22.789Z,98012.69
2022-11-16T00:31:49.826Z,98012.53
2022-11-16T00:34:17.290Z,98005.91
2022-11-16T00:36:44.127Z,98013.53
2022-11-16T00:39:12.557Z,97998.84
2022-11-16T00:41:39.560Z,98004.78
2022-11-16T00:44:06.122Z,97989.41
2022-11-16T00:46:32.730Z,98001.59
2022-11-16T00:48:59.345Z,98004.78
2022-11-16T00:51:25.799Z,97996.34
2022-11-16T00:53:52.217Z,97996.06
2022-11-16T00:56:18.747Z,97998.97
2022-11-16T00:58:45.160Z,98001.59
2022-11-16T01:01:11.967Z,98003.53
2022-11-16T01:03:38.710Z,98012.81
2022-11-16T01:06:08.155Z,98001.59
2022-11-16T01:08:37.464Z,98018.06
2022-11-16T01:11:04.932Z,98004.09
2022-11-16T01:13:31.682Z,98006.84
2022-11-16T01:15:58.415Z,98006.97
2022-11-16T01:18:24.812Z,98010.56
2022-11-16T01:20:51.577Z,98002.25
2022-11-16T01:23:18.026Z,98001.50
2022-11-16T01:25:44.456Z,98014.56
2022-11-16T01:28:10.995Z,98000.25
2022-11-16T01:30:37.418Z,98006.47
2022-11-16T01:33:04.205Z,97998.69
2022-11-16T01:35:30.698Z,97992.16
2022-11-16T01:37:57.114Z,97998.84
2022-11-16T01:40:23.527Z,97999.09
2022-11-16T01:42:50.129Z,97992.03
2022-11-16T01:45:19.491Z,98007.53
2022-11-16T01:47:46.768Z,98005.75
2022-11-16T01:50:16.762Z,98010.56
2022-11-16T01:52:48.974Z,98000.03
2022-11-16T01:55:15.912Z,97999.22
2022-11-16T01:57:44.224Z,97999.91
2022-11-16T02:00:13.292Z,98004.91
2022-11-16T02:02:39.758Z,98003.41
2022-11-16T02:05:07.660Z,97999.22
2022-11-16T02:07:41.857Z,97999.28
2022-11-16T02:10:30.947Z,97993.69
2022-11-16T02:13:31.885Z,97989.66
2022-11-16T02:16:30.636Z,97997.88
2022-11-16T02:19:24.399Z,97981.56
2022-11-16T02:21:56.999Z,97979.31
2022-11-16T02:24:42.467Z,97980.13
2022-11-16T02:27:44.473Z,97983.34
2022-11-16T02:30:11.038Z,97986.25
2022-11-16T02:32:47.283Z,97984.31
2022-11-16T02:35:21.663Z,97979.75
2022-11-16T02:37:56.383Z,97979.75
2022-11-16T02:40:26.322Z,97972.25
2022-11-16T02:42:57.946Z,97977.50
2022-11-16T02:45:28.420Z,97960.59
2022-11-16T02:48:00.162Z,97964.38
2022-11-16T02:50:27.730Z,97968.09
2022-11-16T02:52:54.169Z,97961.69
2022-11-16T02:55:21.192Z,97968.34
2022-11-16T02:57:57.800Z,97964.88
2022-11-16T03:00:29.057Z,97959.19
2022-11-16T03:03:08.030Z,97964.38
2022-11-16T03:05:41.242Z,97962.84
2022-11-16T03:08:12.999Z,97956.16
2022-11-16T03:10:41.828Z,97955.72
2022-11-16T03:13:11.974Z,97944.31
2022-11-16T03:15:41.666Z,97962.63
2022-11-16T03:18:08.961Z,97961.81
2022-11-16T03:20:37.858Z,97946.69
2022-11-16T03:23:08.413Z,97968.47
2022-11-16T03:25:45.958Z,97963.00
2022-11-16T03:28:21.861Z,97956.69
2022-11-16T03:31:13.364Z,97969.44
2022-11-16T03:33:45.885Z,97965.84
2022-11-16T03:36:20.389Z,97963.50
2022-11-16T03:38:50.141Z,97958.88
2022-11-16T03:41:19.320Z,97966.63
2022-11-16T03:43:48.988Z,97976.63
2022-11-16T03:46:16.646Z,97962.06
2022-11-16T03:48:43.331Z,97956.13
2022-11-16T03:51:11.087Z,97964.69
2022-11-16T03:53:37.965Z,97972.44
2022-11-16T03:56:04.953Z,97972.56
2022-11-16T03:58:32.902Z,97970.19
2022-11-16T04:00:59.879Z,97971.41
2022-11-16T04:03:26.333Z,97968.53
2022-11-16T04:05:53.300Z,97969.25
2022-11-16T04:08:19.892Z,97951.81
2022-11-16T04:10:46.364Z,97963.25
2022-11-16T04:13:14.525Z,97972.44
2022-11-16T04:15:41.176Z,97970.38
2022-11-16T04:18:10.227Z,97965.63
2022-11-16T04:20:36.649Z,97967.44
2022-11-16T04:23:08.847Z,97962.81
2022-11-16T04:25:39.377Z,97967.94
2022-11-16T04:28:06.252Z,97974.72
2022-11-16T04:30:32.945Z,97971.41
2022-11-16T04:32:59.365Z,97958.38
2022-11-16T04:35:25.866Z,97961.84
2022-11-16T04:37:53.081Z,97961.38
2022-11-16T04:40:25.340Z,97955.25
2022-11-16T04:42:53.100Z,97951.81
2022-11-16T04:45:20.734Z,97957.50
2022-11-16T04:47:50.420Z,97959.69
2022-11-16T04:50:18.387Z,97945.25
2022-11-16T04:52:45.427Z,97949.31
2022-11-16T04:55:12.549Z,97953.84
2022-11-16T04:57:40.235Z,97949.81
2022-11-16T05:00:08.017Z,97943.13
2022-11-16T05:02:34.420Z,97945.25
2022-11-16T05:05:00.814Z,97949.19
2022-11-16T05:07:27.391Z,97949.88
2022-11-16T05:09:53.951Z,97927.13
2022-11-16T05:12:26.254Z,97942.63
2022-11-16T05:14:53.328Z,97938.97
2022-11-16T05:17:19.778Z,97939.56
2022-11-16T05:19:46.275Z,97928.19
2022-11-16T05:22:12.995Z,97931.31
2022-11-16T05:24:39.397Z,97930.31
2022-11-16T05:27:12.321Z,97927.81
2022-11-16T05:29:39.429Z,97935.84
2022-11-16T05:32:07.284Z,97933.19
2022-11-16T05:34:33.976Z,97934.88
2022-11-16T05:37:00.977Z,97940.25
2022-11-16T05:39:27.958Z,97935.97
2022-11-16T05:41:55.797Z,97928.19
2022-11-16T05:44:22.829Z,97930.84
2022-11-16T05:46:49.332Z,97928.47
2022-11-16T05:49:17.102Z,97928.19
2022-11-16T05:51:45.495Z,97922.81
2022-11-16T05:54:14.444Z,97921.06
2022-11-16T05:56:41.206Z,97915.06
2022-11-16T05:59:11.242Z,97904.38
2022-11-16T06:01:42.004Z,97913.44
2022-11-16T06:04:09.083Z,97918.44
2022-11-16T06:06:35.584Z,97914.69
2022-11-16T06:09:03.076Z,97894.00
2022-11-16T06:11:35.346Z,97911.50
2022-11-16T06:14:02.317Z,97908.88
2022-11-16T06:16:28.836Z,97909.69
2022-11-16T06:18:55.296Z,97906.00
2022-11-16T06:21:21.788Z,97889.31
2022-11-16T06:23:48.884Z,97897.97
2022-11-16T06:26:15.320Z,97880.50
2022-11-16T06:28:42.032Z,97885.06
2022-11-16T06:31:08.557Z,97891.19
2022-11-16T06:33:35.089Z,97884.41
2022-11-16T06:36:01.550Z,97895.22
2022-11-16T06:38:28.270Z,97890.47
2022-11-16T06:40:57.635Z,97902.84
2022-11-16T06:43:25.826Z,97901.56
2022-11-16T06:45:55.077Z,97916.88
2022-11-16T06:48:22.172Z,97919.13
2022-11-16T06:50:50.245Z,97927.00
2022-11-16T06:53:17.172Z,97922.44
2022-11-16T06:55:44.132Z,97930.84
2022-11-16T06:58:10.557Z,97929.91
2022-11-16T07:00:37.315Z,97925.59
2022-11-16T07:03:04.317Z,97929.34
2022-11-16T07:05:32.111Z,97936.63
2022-11-16T07:07:58.844Z,97942.97
2022-11-16T07:10:26.197Z,97939.38
2022-11-16T07:12:52.878Z,97943.81
2022-11-16T07:15:19.370Z,97934.50
2022-11-16T07:17:47.347Z,97934.75
2022-11-16T07:20:14.284Z,97948.09
2022-11-16T07:22:46.924Z,97947.97
2022-11-16T07:25:13.531Z,97936.03
2022-11-16T07:27:39.977Z,97930.31
2022-11-16T07:30:07.111Z,97950.47
2022-11-16T07:32:33.743Z,97935.78
2022-11-16T07:35:00.369Z,97950.91
2022-11-16T07:37:35.379Z,97954.75
2022-11-16T07:40:02.191Z,97948.94
2022-11-16T07:42:28.899Z,97955.59
2022-11-16T07:44:55.628Z,97953.09
2022-11-16T07:47:22.102Z,97942.59
2022-11-16T07:49:49.061Z,97953.22
2022-11-16T07:52:15.639Z,97962.75
2022-11-16T07:54:44.746Z,97949.50
2022-11-16T07:57:11.651Z,97970.97
2022-11-16T07:59:38.263Z,97966.69
2022-11-16T08:02:04.733Z,97970.59
2022-11-16T08:04:31.310Z,97969.06
2022-11-16T08:06:58.108Z,97944.75
2022-11-16T08:09:24.595Z,97970.00
2022-11-16T08:11:51.255Z,97963.94
2022-11-16T08:14:17.754Z,97948.53
2022-11-16T08:16:44.377Z,97959.25
2022-11-16T08:19:10.927Z,97962.84
2022-11-16T08:21:37.368Z,97964.50
2022-11-16T08:24:04.299Z,97970.78
2022-11-16T08:26:31.748Z,97958.84
2022-11-16T08:28:58.240Z,97954.31
2022-11-16T08:31:27.846Z,97964.78
2022-11-16T08:33:55.053Z,97952.53
2022-11-16T08:36:21.656Z,97950.97
2022-11-16T08:38:50.538Z,97963.38
2022-11-16T08:41:18.346Z,97954.66
2022-11-16T08:43:45.583Z,97953.47
2022-11-16T08:46:12.107Z,97949.06
2022-11-16T08:48:39.029Z,97961.00
2022-11-16T08:51:19.901Z,97981.38
2022-11-16T08:53:48.632Z,97977.09
2022-11-16T08:56:17.322Z,97980.13
2022-11-16T08:58:43.873Z,97973.38
2022-11-16T09:01:13.011Z,97979.88
2022-11-16T09:03:40.309Z,97987.41
2022-11-16T09:06:08.001Z,97992.41
2022-11-16T09:08:37.041Z,97980.94
2022-11-16T09:11:05.648Z,97985.56
2022-11-16T09:13:32.319Z,97979.66
2022-11-16T09:16:00.609Z,97985.19
2022-11-16T09:18:28.008Z,97985.81
2022-11-16T09:20:55.242Z,97981.84
2022-11-16T09:23:25.331Z,97987.75
2022-11-16T09:25:52.891Z,97987.16
2022-11-16T09:28:20.188Z,97975.47
2022-11-16T09:30:49.985Z,97981.47
2022-11-16T09:33:16.694Z,97986.97
2022-11-16T09:35:43.151Z,97992.88
2022-11-16T09:38:09.585Z,97981.78
2022-11-16T09:40:46.122Z,97987.75
2022-11-16T09:43:26.333Z,98002.41
2022-11-16T09:46:05.487Z,97991.50
2022-11-16T09:48:36.786Z,97985.94
2022-11-16T09:51:07.838Z,97989.41
2022-11-16T09:53:41.595Z,97980.31
2022-11-16T09:56:17.802Z,97988.88
2022-11-16T09:58:58.557Z,97969.66
2022-11-16T10:01:35.137Z,97985.94
2022-11-16T10:04:13.676Z,97986.06
2022-11-16T10:06:49.164Z,97987.09
2022-11-16T10:09:15.895Z,97992.22
2022-11-16T10:11:56.777Z,97989.22
2022-11-16T10:15:00.843Z,97993.34
2022-11-16T10:17:55.645Z,97997.53
2022-11-16T10:20:44.360Z,97985.81
2022-11-16T10:23:35.510Z,97987.38
2022-11-16T10:26:25.677Z,97994.75
2022-11-16T10:29:23.280Z,97987.53
2022-11-16T10:32:17.790Z,97984.03
2022-11-16T10:35:03.477Z,97980.41
2022-11-16T10:37:34.253Z,97983.22
2022-11-16T10:40:17.277Z,97988.50
2022-11-16T10:42:49.238Z,97982.75
2022-11-16T10:45:22.510Z,97984.41
2022-11-16T10:47:51.801Z,97973.72
2022-11-16T10:50:40.881Z,97962.31
2022-11-16T10:53:12.947Z,97969.19
2022-11-16T10:55:39.521Z,97969.59
2022-11-16T10:58:06.333Z,97969.34
2022-11-16T11:00:42.407Z,97968.91
2022-11-16T11:03:09.470Z,97962.44
2022-11-16T11:05:36.853Z,97963.34
2022-11-16T11:08:11.869Z,97944.34
2022-11-16T11:10:41.213Z,97961.72
2022-11-16T11:13:10.785Z,97968.16
2022-11-16T11:15:42.453Z,97958.13
2022-11-16T11:18:18.323Z,97956.97
2022-11-16T11:20:48.866Z,97954.84
2022-11-16T11:23:22.298Z,97970.22
2022-11-16T11:25:55.220Z,97949.81
2022-11-16T11:28:33.660Z,97942.75
2022-11-16T11:31:45.005Z,97951.09
2022-11-16T11:34:20.208Z,97956.69
2022-11-16T11:36:52.740Z,97949.34
2022-11-16T11:39:19.649Z,97945.91
2022-11-16T11:42:00.885Z,97933.38
2022-11-16T11:44:53.860Z,97914.13
2022-11-16T11:47:58.180Z,97932.41
2022-11-16T11:50:42.983Z,97940.59
2022-11-16T11:53:10.432Z,97933.50
2022-11-16T11:55:37.501Z,97925.75
2022-11-16T11:58:05.986Z,97927.59
2022-11-16T12:00:51.162Z,97930.91
2022-11-16T12:03:55.329Z,97935.38
2022-11-16T12:06:47.126Z,97929.31
2022-11-16T12:09:42.114Z,97929.38
2022-11-16T12:12:14.965Z,97927.84
2022-11-16T12:15:10.684Z,97931.19
2022-11-16T12:18:12.468Z,97934.25
2022-11-16T12:20:56.939Z,97936.59
2022-11-16T12:23:56.316Z,97923.03
2022-11-16T12:26:52.434Z,97933.41
2022-11-16T12:29:26.680Z,97942.78
2022-11-16T12:32:09.252Z,97935.84
2022-11-16T12:35:13.133Z,97939.00
2022-11-16T12:38:20.527Z,97931.69
2022-11-16T12:41:14.159Z,97920.84
2022-11-16T12:44:09.284Z,97925.91
2022-11-16T12:46:52.193Z,97924.00
2022-11-16T12:49:51.344Z,97910.00
2022-11-16T12:52:44.034Z,97926.94
2022-11-16T12:55:25.968Z,97928.59
2022-11-16T12:58:10.886Z,97916.94
2022-11-16T13:01:05.355Z,97910.88
2022-11-16T13:03:45.840Z,97921.16
2022-11-16T13:06:20.047Z,97906.38
2022-11-16T13:09:11.221Z,97907.06
2022-11-16T13:11:43.438Z,97901.81
2022-11-16T13:14:21.619Z,97893.38
2022-11-16T13:16:50.572Z,97874.94
2022-11-16T13:19:17.961Z,97884.41
2022-11-16T13:22:07.602Z,97895.78
2022-11-16T13:24:53.011Z,97890.94
2022-11-16T13:27:22.882Z,97889.03
2022-11-16T13:30:12.648Z,97889.44
2022-11-16T13:32:57.380Z,97894.47
2022-11-16T13:35:24.073Z,97892.31
2022-11-16T13:37:51.600Z,97887.41
2022-11-16T13:40:34.419Z,97890.63
2022-11-16T13:43:03.135Z,97886.16
2022-11-16T13:45:36.965Z,97887.91
2022-11-16T13:48:15.812Z,97882.09
2022-11-16T13:50:51.769Z,97871.66
2022-11-16T13:56:11.162Z,97883.06
2022-11-16T13:58:43.861Z,97878.28
2022-11-16T14:01:12.957Z,97887.38
2022-11-16T14:04:09.082Z,97875.81
2022-11-16T14:06:44.690Z,97879.94
2022-11-16T14:09:47.432Z,97869.50
2022-11-16T14:12:38.907Z,97873.09
2022-11-16T14:15:14.296Z,97876.13
2022-11-16T14:17:58.992Z,97876.41
2022-11-16T14:20:38.215Z,97866.53
2022-11-16T14:23:31.662Z,97872.16
2022-11-16T14:26:24.221Z,97857.28
2022-11-16T14:28:53.953Z,97862.72
2022-11-16T14:31:46.200Z,97871.34
2022-11-16T14:34:19.037Z,97872.06
2022-11-16T14:36:47.079Z,97868.19
2022-11-16T14:39:35.531Z,97876.13
2022-11-16T14:42:05.769Z,97874.81
2022-11-16T14:44:38.110Z,97875.13
2022-11-16T14:47:05.150Z,97877.69
2022-11-16T14:49:34.723Z,97876.88
2022-11-16T14:52:03.414Z,97871.06
2022-11-16T14:54:42.462Z,97880.41
2022-11-16T14:57:21.547Z,97879.63
2022-11-16T14:59:48.393Z,97879.78
2022-11-16T15:02:20.887Z,97881.53
2022-11-16T15:04:48.540Z,97887.09
2022-11-16T15:07:16.241Z,97885.16
2022-11-16T15:09:50.359Z,97880.59
2022-11-16T15:12:20.052Z,97875.72
2022-11-16T15:14:53.060Z,97875.72
2022-11-16T15:17:31.721Z,97884.31
2022-11-16T15:20:02.293Z,97882.63
2022-11-16T15:22:42.449Z,97888.03
2022-11-16T15:25:30.398Z,97882.44
2022-11-16T15:27:59.229Z,97889.59
2022-11-16T15:30:29.221Z,97900.09
2022-11-16T15:32:56.513Z,97892.88
2022-11-16T15:35:32.887Z,97902.25
2022-11-16T15:38:20.339Z,97906.50
2022-11-16T15:41:05.394Z,97883.88
2022-11-16T15:43:49.629Z,97897.75
2022-11-16T15:46:23.281Z,97895.50
2022-11-16T15:48:50.740Z,97899.78
2022-11-16T15:51:19.894Z,97891.00
2022-11-16T15:53:48.549Z,97899.78
2022-11-16T15:56:27.311Z,97901.19
2022-11-16T15:58:55.792Z,97890.50
2022-11-16T16:01:23.344Z,97899.84
2022-11-16T16:04:01.468Z,97897.84
2022-11-16T16:06:48.884Z,97901.91
2022-11-16T16:09:20.385Z,97911.88
2022-11-16T16:11:47.098Z,97914.19
2022-11-16T16:14:22.809Z,97905.97
2022-11-16T16:16:59.878Z,97908.16
2022-11-16T16:19:32.977Z,97902.69
2022-11-16T16:22:00.041Z,97904.72
2022-11-16T16:24:35.320Z,97908.22
2022-11-16T16:27:02.194Z,97908.84
2022-11-16T16:29:28.709Z,97905.41
2022-11-16T16:31:56.132Z,97897.09
2022-11-16T16:34:22.626Z,97907.94
2022-11-16T16:36:49.397Z,97914.28
2022-11-16T16:39:15.944Z,97910.13
2022-11-16T16:41:42.364Z,97911.06
2022-11-16T16:44:14.018Z,97905.09
2022-11-16T16:46:40.456Z,97902.03
2022-11-16T16:49:07.094Z,97900.34
2022-11-16T16:51:33.994Z,97903.09
2022-11-16T16:54:00.497Z,97900.00
2022-11-16T16:56:26.968Z,97919.09
2022-11-16T16:58:53.387Z,97899.44
2022-11-16T17:01:20.230Z,97903.00
2022-11-16T17:03:46.686Z,97903.47
2022-11-16T17:06:13.239Z,97887.72
2022-11-16T17:08:39.739Z,97901.09
2022-11-16T17:11:06.164Z,97899.16
2022-11-16T17:13:33.889Z,97908.78
2022-11-16T17:16:04.980Z,97907.13
2022-11-16T17:18:31.617Z,97903.75
2022-11-16T17:21:07.367Z,97894.72
2022-11-16T17:23:35.139Z,97894.09
2022-11-16T17:26:05.978Z,97890.06
2022-11-16T17:28:40.608Z,97897.19
2022-11-16T17:31:09.483Z,97900.50
2022-11-16T17:33:46.096Z,97899.19
2022-11-16T17:36:22.707Z,97901.09
2022-11-16T17:38:50.137Z,97883.56
2022-11-16T17:41:22.955Z,97889.97
2022-11-16T17:43:52.968Z,97891.28
2022-11-16T17:46:26.112Z,97883.50
2022-11-16T17:48:53.138Z,97898.97
2022-11-16T17:51:24.464Z,97896.59
2022-11-16T17:53:51.513Z,97906.00
2022-11-16T17:56:21.504Z,97901.22
2022-11-16T17:58:48.393Z,97904.06
2022-11-16T18:01:14.898Z,97907.97
2022-11-16T18:03:42.427Z,97899.06
2022-11-16T18:06:12.595Z,97896.25
2022-11-16T18:08:40.632Z,97909.88
2022-11-16T18:11:11.203Z,97905.19
2022-11-16T18:13:38.038Z,97900.84
2022-11-16T18:16:15.652Z,97898.47
2022-11-16T18:18:43.242Z,97891.44
2022-11-16T18:21:10.177Z,97898.22
2022-11-16T18:23:38.155Z,97893.72
2022-11-16T18:26:09.169Z,97890.94
2022-11-16T18:28:36.585Z,97888.66
2022-11-16T18:31:08.620Z,97894.34
2022-11-16T18:33:39.603Z,97884.19
2022-11-16T18:36:08.034Z,97863.81
2022-11-16T18:38:34.885Z,97882.81
2022-11-16T18:41:13.236Z,97869.91
2022-11-16T18:43:57.743Z,97873.47
2022-11-16T18:46:27.032Z,97871.19
2022-11-16T18:48:53.975Z,97867.13
2022-11-16T18:51:21.761Z,97877.00
2022-11-16T18:53:49.046Z,97875.75
2022-11-16T18:56:16.226Z,97874.59
2022-11-16T18:58:50.236Z,97864.59
2022-11-16T19:01:18.973Z,97883.28
2022-11-16T19:03:45.488Z,97883.41
2022-11-16T19:06:12.819Z,97874.41
2022-11-16T19:08:40.499Z,97871.66
2022-11-16T19:11:09.284Z,97871.66
2022-11-16T19:13:37.435Z,97872.16
2022-11-16T19:16:04.237Z,97875.50
2022-11-16T19:18:30.670Z,97884.06
2022-11-16T19:21:23.761Z,97881.56
2022-11-16T19:23:52.787Z,97885.88
2022-11-16T19:26:21.517Z,97880.63
2022-11-16T19:28:49.560Z,97878.94
2022-11-16T19:31:24.618Z,97879.66
2022-11-16T19:33:59.808Z,97861.34
2022-11-16T19:36:27.562Z,97866.16
2022-11-16T19:38:54.049Z,97860.91
2022-11-16T19:41:21.264Z,97858.19
2022-11-16T19:43:48.517Z,97846.97
2022-11-16T19:46:16.981Z,97862.97
2022-11-16T19:48:44.622Z,97867.47
2022-11-16T19:51:14.872Z,97870.81
2022-11-16T19:53:44.206Z,97865.06
2022-11-16T19:56:12.690Z,97889.50
2022-11-16T19:58:39.574Z,97877.75
2022-11-16T20:01:10.145Z,97884.41
2022-11-16T20:03:37.275Z,97871.06
2022-11-16T20:06:12.394Z,97869.84
2022-11-16T20:08:40.237Z,97863.78
2022-11-16T20:11:15.811Z,97865.34
2022-11-16T20:13:42.964Z,97858.66
2022-11-16T20:16:11.377Z,97861.75
2022-11-16T20:18:39.347Z,97862.28
2022-11-16T20:21:07.324Z,97847.16
2022-11-16T20:23:35.013Z,97852.03
2022-11-16T20:26:09.319Z,97849.75
2022-11-16T20:28:37.994Z,97858.31
2022-11-16T20:31:08.364Z,97864.78
2022-11-16T20:34:05.740Z,97871.44
2022-11-16T20:36:33.464Z,97866.31
2022-11-16T20:39:00.888Z,97854.13
2022-11-16T20:41:32.216Z,97879.63
2022-11-16T20:44:00.811Z,97879.03
2022-11-16T20:46:29.371Z,97888.34
2022-11-16T20:48:56.210Z,97890.84
2022-11-16T20:51:23.892Z,97878.69
2022-11-16T20:53:50.895Z,97870.34
2022-11-16T20:56:18.298Z,97871.88
2022-11-16T20:58:46.031Z,97860.34
2022-11-16T21:01:14.817Z,97852.97
2022-11-16T21:03:41.401Z,97857.84
2022-11-16T21:06:08.168Z,97865.72
2022-11-16T21:08:35.625Z,97880.03
2022-11-16T21:11:03.128Z,97868.81
2022-11-16T21:13:29.513Z,97866.06
2022-11-16T21:16:04.880Z,97863.56
2022-11-16T21:18:31.787Z,97855.13
2022-11-16T21:22:20.696Z,97855.59
2022-11-16T21:24:47.114Z,97858.44
2022-11-16T21:27:13.501Z,97840.00
2022-11-16T21:29:39.891Z,97850.59
2022-11-16T21:32:40.137Z,97855.72
2022-11-16T21:35:06.786Z,97839.66
2022-11-16T21:37:33.292Z,97846.69
2022-11-16T21:39:59.718Z,97836.44
2022-11-16T21:42:26.110Z,97847.28
2022-11-16T21:44:52.709Z,97841.09
2022-11-16T21:47:21.122Z,97837.53
2022-11-16T21:50:16.462Z,97828.75
2022-11-16T21:54:20.658Z,97837.81
2022-11-16T21:58:38.669Z,97843.59
2022-11-16T22:01:05.274Z,97833.84
2022-11-16T22:03:32.794Z,97846.56
2022-11-16T22:06:02.671Z,97845.00
2022-11-16T22:08:29.793Z,97842.91
2022-11-16T22:10:56.208Z,97832.44
2022-11-16T22:14:03.619Z,97832.78
2022-11-16T22:16:30.144Z,97826.22
2022-11-16T22:18:56.652Z,97825.16
2022-11-16T22:21:23.109Z,97825.75
2022-11-16T22:23:49.556Z,97819.81
2022-11-16T22:26:16.114Z,97832.19
2022-11-16T22:29:30.817Z,97826.72
2022-11-16T22:31:57.271Z,97818.75
2022-11-16T22:34:23.853Z,97809.69
2022-11-16T22:36:50.287Z,97799.34
2022-11-16T22:39:16.693Z,97796.63
2022-11-16T22:41:43.478Z,97793.53
2022-11-16T22:44:09.893Z,97782.31
2022-11-16T22:46:36.373Z,97782.69
2022-11-16T22:49:02.973Z,97779.34
2022-11-16T22:52:41.421Z,97794.31
2022-11-16T22:55:08.268Z,97790.31
2022-11-16T22:57:34.804Z,97788.97
2022-11-16T23:00:01.245Z,97782.31
2022-11-16T23:02:27.988Z,97778.97
2022-11-16T23:04:54.349Z,97775.41
2022-11-16T23:07:20.970Z,97793.16
2022-11-16T23:09:47.534Z,97779.47
2022-11-16T23:12:14.200Z,97756.84
2022-11-16T23:14:40.904Z,97779.47
2022-11-16T23:17:07.501Z,97777.94
2022-11-16T23:19:34.208Z,97771.03
2022-11-16T23:22:00.811Z,97779.34
2022-11-16T23:24:27.226Z,97766.25
2022-11-16T23:26:53.956Z,97763.03
2022-11-16T23:29:20.306Z,97751.75
2022-11-16T23:31:46.763Z,97743.53
2022-11-16T23:34:13.138Z,97745.06
2022-11-16T23:36:39.487Z,97746.97
2022-11-16T23:39:06.001Z,97739.22
2022-11-16T23:41:32.391Z,97742.31
2022-11-16T23:43:58.758Z,97728.41
2022-11-16T23:46:30.165Z,97730.06
2022-11-16T23:48:57.801Z,97724.94
2022-11-16T23:51:25.111Z,97727.09
2022-11-16T23:53:52.998Z,97718.13
2022-11-16T23:56:21.205Z,97708.13
2022-11-16T23:58:48.142Z,97707.69
